メインページ
METAR-TAF:

METAR-TAF

空港 :

Chetwynd, ブリティッシュコロンビア州, カナダ

緯度: 55-42N, 経度: 121-38W, 海抜: 609m

現時点の気象観測

当レポートは1時間9分前の17:00(UTC)に作成
南西の風 7kt、から西/南西の間で変化する
気温 21°C
湿度 46%
気圧 1014 hPa
視程: 56.3km
高度6000ftの雲はほとんどない
高度12000ftの雲はほとんどない
高度24000ftの雲は散在している

METAR: CYCQ 161700Z 23007KT 190V250 35SM FEW060 FEW120 SCT240 21/09 A2995 RMK CU1AC1CI2 CU TR ACSL ALQDS SLP144 DENSITY ALT 3200FT

時間: 11:09 (18:09 UTC)


TAF: 見つかりません

4,000以上の空港の気象観測と天気予報(METAR報とTAF報)

利用可能な観測所は地図上に黄色い丸と赤い丸で示す。

丸の上にカーソルを重ねると観測所名を参照できる。

次にクリックすると気象観測と天気予報を参照できる。

マップの切り替え:黒色「×」印の緑ボタンをクリックして拡大、「-」印の緑ボタンをクリックして縮小、緑色の三角印をクリックして隣りの地図に切り替え


METAR-TAF: